sensor_id;sensor_type;location;lat;lon;timestamp;P1;durP1;ratioP1;P2;durP2;ratioP2
68072;SDS011;54862;51.502;7.446;2022-12-15T00:02:09;16.35;;;9.02;;
68072;SDS011;54862;51.502;7.446;2022-12-15T00:04:53;24.67;;;10.85;;
68072;SDS011;54862;51.502;7.446;2022-12-15T00:07:38;22.33;;;10.43;;
68072;SDS011;54862;51.502;7.446;2022-12-15T00:10:22;22.85;;;10.50;;
68072;SDS011;54862;51.502;7.446;2022-12-15T00:13:10;26.02;;;10.65;;
68072;SDS011;54862;51.502;7.446;2022-12-15T00:15:55;18.17;;;9.32;;
68072;SDS011;54862;51.502;7.446;2022-12-15T00:18:39;23.20;;;10.63;;
68072;SDS011;54862;51.502;7.446;2022-12-15T00:21:24;22.35;;;9.38;;
68072;SDS011;54862;51.502;7.446;2022-12-15T00:24:09;25.63;;;10.00;;
68072;SDS011;54862;51.502;7.446;2022-12-15T00:26:53;24.70;;;10.63;;
68072;SDS011;54862;51.502;7.446;2022-12-15T00:29:37;20.20;;;10.00;;
68072;SDS011;54862;51.502;7.446;2022-12-15T00:32:22;24.60;;;11.40;;
68072;SDS011;54862;51.502;7.446;2022-12-15T00:35:07;22.08;;;9.45;;
68072;SDS011;54862;51.502;7.446;2022-12-15T00:37:51;19.92;;;10.20;;
68072;SDS011;54862;51.502;7.446;2022-12-15T00:40:36;20.08;;;9.98;;
68072;SDS011;54862;51.502;7.446;2022-12-15T00:43:02;18.95;;;10.32;;
68072;SDS011;54862;51.502;7.446;2022-12-15T00:45:28;22.27;;;10.68;;
68072;SDS011;54862;51.502;7.446;2022-12-15T00:48:13;24.40;;;9.63;;
68072;SDS011;54862;51.502;7.446;2022-12-15T00:50:39;20.42;;;10.93;;
68072;SDS011;54862;51.502;7.446;2022-12-15T00:53:17;23.02;;;10.85;;
68072;SDS011;54862;51.502;7.446;2022-12-15T00:56:02;25.48;;;10.00;;
68072;SDS011;54862;51.502;7.446;2022-12-15T00:58:46;22.48;;;10.60;;
68072;SDS011;54862;51.502;7.446;2022-12-15T01:01:31;23.13;;;11.38;;
68072;SDS011;54862;51.502;7.446;2022-12-15T01:04:15;26.85;;;10.80;;
68072;SDS011;54862;51.502;7.446;2022-12-15T01:07:00;22.52;;;11.93;;
68072;SDS011;54862;51.502;7.446;2022-12-15T01:09:44;24.02;;;11.23;;
68072;SDS011;54862;51.502;7.446;2022-12-15T01:12:29;20.55;;;10.07;;
68072;SDS011;54862;51.502;7.446;2022-12-15T01:15:13;23.52;;;11.38;;
68072;SDS011;54862;51.502;7.446;2022-12-15T01:17:58;18.83;;;10.27;;
68072;SDS011;54862;51.502;7.446;2022-12-15T01:20:43;19.45;;;10.32;;
68072;SDS011;54862;51.502;7.446;2022-12-15T01:23:08;28.52;;;11.50;;
68072;SDS011;54862;51.502;7.446;2022-12-15T01:25:34;25.25;;;11.43;;
68072;SDS011;54862;51.502;7.446;2022-12-15T01:28:03;24.63;;;11.52;;
68072;SDS011;54862;51.502;7.446;2022-12-15T01:30:29;26.85;;;12.23;;
68072;SDS011;54862;51.502;7.446;2022-12-15T01:32:55;23.25;;;11.88;;
68072;SDS011;54862;51.502;7.446;2022-12-15T01:35:21;22.98;;;11.93;;
68072;SDS011;54862;51.502;7.446;2022-12-15T01:37:47;21.10;;;11.55;;
68072;SDS011;54862;51.502;7.446;2022-12-15T01:40:14;25.00;;;11.45;;
68072;SDS011;54862;51.502;7.446;2022-12-15T01:42:59;26.80;;;11.23;;
68072;SDS011;54862;51.502;7.446;2022-12-15T01:48:01;23.23;;;10.50;;
68072;SDS011;54862;51.502;7.446;2022-12-15T01:50:29;22.90;;;10.85;;
68072;SDS011;54862;51.502;7.446;2022-12-15T01:52:56;25.42;;;11.82;;
68072;SDS011;54862;51.502;7.446;2022-12-15T01:55:23;25.10;;;10.98;;
68072;SDS011;54862;51.502;7.446;2022-12-15T01:57:51;29.63;;;11.38;;
68072;SDS011;54862;51.502;7.446;2022-12-15T02:00:18;23.25;;;10.25;;
68072;SDS011;54862;51.502;7.446;2022-12-15T02:02:44;22.63;;;11.05;;
68072;SDS011;54862;51.502;7.446;2022-12-15T02:05:10;22.50;;;10.85;;
68072;SDS011;54862;51.502;7.446;2022-12-15T02:07:36;23.17;;;10.23;;
68072;SDS011;54862;51.502;7.446;2022-12-15T02:10:02;25.42;;;12.02;;
68072;SDS011;54862;51.502;7.446;2022-12-15T02:20:45;23.55;;;10.57;;
68072;SDS011;54862;51.502;7.446;2022-12-15T02:28:31;22.83;;;9.98;;
68072;SDS011;54862;51.502;7.446;2022-12-15T02:31:02;20.27;;;8.50;;
68072;SDS011;54862;51.502;7.446;2022-12-15T02:33:59;18.35;;;9.55;;
68072;SDS011;54862;51.502;7.446;2022-12-15T02:36:41;22.38;;;9.85;;
68072;SDS011;54862;51.502;7.446;2022-12-15T02:39:10;23.45;;;10.07;;
68072;SDS011;54862;51.502;7.446;2022-12-15T02:41:38;24.00;;;10.90;;
68072;SDS011;54862;51.502;7.446;2022-12-15T02:44:25;24.15;;;11.35;;
68072;SDS011;54862;51.502;7.446;2022-12-15T03:00:07;22.00;;;9.93;;
68072;SDS011;54862;51.502;7.446;2022-12-15T03:02:35;21.23;;;9.45;;
68072;SDS011;54862;51.502;7.446;2022-12-15T03:05:03;21.75;;;10.10;;
68072;SDS011;54862;51.502;7.446;2022-12-15T03:07:29;20.00;;;9.88;;
68072;SDS011;54862;51.502;7.446;2022-12-15T03:09:55;23.88;;;10.65;;
68072;SDS011;54862;51.502;7.446;2022-12-15T03:12:22;21.70;;;10.68;;
68072;SDS011;54862;51.502;7.446;2022-12-15T03:14:48;21.77;;;10.82;;
68072;SDS011;54862;51.502;7.446;2022-12-15T03:17:14;23.55;;;9.70;;
68072;SDS011;54862;51.502;7.446;2022-12-15T03:19:39;21.20;;;10.30;;
68072;SDS011;54862;51.502;7.446;2022-12-15T03:22:05;20.67;;;9.23;;
68072;SDS011;54862;51.502;7.446;2022-12-15T03:24:31;23.70;;;10.65;;
68072;SDS011;54862;51.502;7.446;2022-12-15T03:26:57;25.95;;;9.80;;
68072;SDS011;54862;51.502;7.446;2022-12-15T03:29:23;22.95;;;10.55;;
68072;SDS011;54862;51.502;7.446;2022-12-15T03:31:49;24.02;;;10.55;;
68072;SDS011;54862;51.502;7.446;2022-12-15T03:34:15;20.08;;;9.15;;
68072;SDS011;54862;51.502;7.446;2022-12-15T03:36:41;26.65;;;10.65;;
68072;SDS011;54862;51.502;7.446;2022-12-15T03:39:07;24.25;;;10.43;;
68072;SDS011;54862;51.502;7.446;2022-12-15T03:41:33;21.33;;;10.32;;
68072;SDS011;54862;51.502;7.446;2022-12-15T03:43:59;26.55;;;10.68;;
68072;SDS011;54862;51.502;7.446;2022-12-15T03:46:26;22.13;;;10.35;;
68072;SDS011;54862;51.502;7.446;2022-12-15T03:48:52;22.40;;;9.52;;
68072;SDS011;54862;51.502;7.446;2022-12-15T03:51:18;26.23;;;10.43;;
68072;SDS011;54862;51.502;7.446;2022-12-15T03:53:44;23.67;;;10.05;;
68072;SDS011;54862;51.502;7.446;2022-12-15T03:56:13;22.40;;;9.50;;
68072;SDS011;54862;51.502;7.446;2022-12-15T03:58:39;20.27;;;9.73;;
68072;SDS011;54862;51.502;7.446;2022-12-15T04:01:16;17.25;;;8.90;;
68072;SDS011;54862;51.502;7.446;2022-12-15T04:03:43;21.60;;;10.07;;
68072;SDS011;54862;51.502;7.446;2022-12-15T04:06:09;22.52;;;10.38;;
68072;SDS011;54862;51.502;7.446;2022-12-15T04:08:35;22.48;;;10.00;;
68072;SDS011;54862;51.502;7.446;2022-12-15T04:11:01;19.83;;;9.50;;
68072;SDS011;54862;51.502;7.446;2022-12-15T04:13:27;23.73;;;9.68;;
68072;SDS011;54862;51.502;7.446;2022-12-15T04:15:53;19.65;;;8.77;;
68072;SDS011;54862;51.502;7.446;2022-12-15T04:18:19;22.95;;;8.98;;
68072;SDS011;54862;51.502;7.446;2022-12-15T04:20:45;23.73;;;9.82;;
68072;SDS011;54862;51.502;7.446;2022-12-15T04:23:12;23.25;;;10.50;;
68072;SDS011;54862;51.502;7.446;2022-12-15T04:25:38;23.17;;;10.05;;
68072;SDS011;54862;51.502;7.446;2022-12-15T04:28:22;21.95;;;9.98;;
68072;SDS011;54862;51.502;7.446;2022-12-15T04:31:08;21.92;;;9.98;;
68072;SDS011;54862;51.502;7.446;2022-12-15T04:33:54;21.45;;;9.43;;
68072;SDS011;54862;51.502;7.446;2022-12-15T04:36:39;22.80;;;9.35;;
68072;SDS011;54862;51.502;7.446;2022-12-15T04:39:25;18.85;;;9.57;;
68072;SDS011;54862;51.502;7.446;2022-12-15T04:42:10;24.27;;;10.00;;
68072;SDS011;54862;51.502;7.446;2022-12-15T04:44:56;18.85;;;10.20;;
68072;SDS011;54862;51.502;7.446;2022-12-15T04:47:41;17.52;;;9.40;;
68072;SDS011;54862;51.502;7.446;2022-12-15T04:50:26;20.52;;;9.30;;
68072;SDS011;54862;51.502;7.446;2022-12-15T04:53:11;18.40;;;8.73;;
68072;SDS011;54862;51.502;7.446;2022-12-15T04:55:56;17.67;;;9.35;;
68072;SDS011;54862;51.502;7.446;2022-12-15T04:58:41;20.02;;;9.75;;
68072;SDS011;54862;51.502;7.446;2022-12-15T05:01:26;20.40;;;9.18;;
68072;SDS011;54862;51.502;7.446;2022-12-15T05:04:10;23.55;;;10.13;;
68072;SDS011;54862;51.502;7.446;2022-12-15T05:06:55;23.58;;;10.15;;
68072;SDS011;54862;51.502;7.446;2022-12-15T05:09:40;19.35;;;8.38;;
68072;SDS011;54862;51.502;7.446;2022-12-15T05:12:24;21.48;;;9.23;;
68072;SDS011;54862;51.502;7.446;2022-12-15T05:15:09;20.05;;;9.25;;
68072;SDS011;54862;51.502;7.446;2022-12-15T05:17:53;23.15;;;9.15;;
68072;SDS011;54862;51.502;7.446;2022-12-15T05:20:38;18.55;;;8.73;;
68072;SDS011;54862;51.502;7.446;2022-12-15T05:23:23;20.13;;;10.07;;
68072;SDS011;54862;51.502;7.446;2022-12-15T05:26:07;18.90;;;8.50;;
68072;SDS011;54862;51.502;7.446;2022-12-15T05:28:52;21.55;;;8.88;;
68072;SDS011;54862;51.502;7.446;2022-12-15T05:31:36;19.83;;;9.52;;
68072;SDS011;54862;51.502;7.446;2022-12-15T05:34:23;20.48;;;9.15;;
68072;SDS011;54862;51.502;7.446;2022-12-15T05:36:50;19.13;;;9.60;;
68072;SDS011;54862;51.502;7.446;2022-12-15T05:39:16;19.98;;;9.13;;
68072;SDS011;54862;51.502;7.446;2022-12-15T05:41:42;23.35;;;9.38;;
68072;SDS011;54862;51.502;7.446;2022-12-15T05:44:08;24.42;;;10.60;;
68072;SDS011;54862;51.502;7.446;2022-12-15T05:46:35;21.50;;;10.05;;
68072;SDS011;54862;51.502;7.446;2022-12-15T05:49:04;21.73;;;10.88;;
68072;SDS011;54862;51.502;7.446;2022-12-15T05:51:31;26.25;;;10.23;;
68072;SDS011;54862;51.502;7.446;2022-12-15T05:53:57;21.27;;;9.88;;
68072;SDS011;54862;51.502;7.446;2022-12-15T05:56:23;19.27;;;8.98;;
68072;SDS011;54862;51.502;7.446;2022-12-15T05:58:50;25.17;;;9.95;;
68072;SDS011;54862;51.502;7.446;2022-12-15T06:01:16;19.00;;;9.35;;
68072;SDS011;54862;51.502;7.446;2022-12-15T06:03:43;25.83;;;10.45;;
68072;SDS011;54862;51.502;7.446;2022-12-15T06:06:10;22.02;;;8.93;;
68072;SDS011;54862;51.502;7.446;2022-12-15T06:08:36;19.20;;;9.23;;
68072;SDS011;54862;51.502;7.446;2022-12-15T06:11:03;21.58;;;8.70;;
68072;SDS011;54862;51.502;7.446;2022-12-15T06:13:30;19.55;;;9.25;;
68072;SDS011;54862;51.502;7.446;2022-12-15T06:16:00;20.90;;;9.57;;
68072;SDS011;54862;51.502;7.446;2022-12-15T06:18:30;18.20;;;8.57;;
68072;SDS011;54862;51.502;7.446;2022-12-15T06:21:00;20.42;;;10.27;;
68072;SDS011;54862;51.502;7.446;2022-12-15T06:23:27;19.35;;;9.32;;
68072;SDS011;54862;51.502;7.446;2022-12-15T06:25:53;22.10;;;10.82;;
68072;SDS011;54862;51.502;7.446;2022-12-15T06:28:19;22.77;;;9.15;;
68072;SDS011;54862;51.502;7.446;2022-12-15T06:30:51;20.88;;;9.32;;
68072;SDS011;54862;51.502;7.446;2022-12-15T06:33:18;27.65;;;9.77;;
68072;SDS011;54862;51.502;7.446;2022-12-15T06:35:44;25.50;;;9.80;;
68072;SDS011;54862;51.502;7.446;2022-12-15T06:38:10;22.10;;;10.23;;
68072;SDS011;54862;51.502;7.446;2022-12-15T06:40:36;20.38;;;9.15;;
68072;SDS011;54862;51.502;7.446;2022-12-15T06:43:02;21.48;;;9.73;;
68072;SDS011;54862;51.502;7.446;2022-12-15T06:45:28;19.30;;;9.23;;
68072;SDS011;54862;51.502;7.446;2022-12-15T06:47:54;24.85;;;10.73;;
68072;SDS011;54862;51.502;7.446;2022-12-15T06:50:20;22.27;;;9.85;;
68072;SDS011;54862;51.502;7.446;2022-12-15T06:52:46;22.13;;;10.10;;
68072;SDS011;54862;51.502;7.446;2022-12-15T06:55:12;22.95;;;10.15;;
68072;SDS011;54862;51.502;7.446;2022-12-15T06:57:38;22.10;;;9.32;;
68072;SDS011;54862;51.502;7.446;2022-12-15T07:00:04;22.52;;;10.02;;
68072;SDS011;54862;51.502;7.446;2022-12-15T07:02:30;18.73;;;9.55;;
68072;SDS011;54862;51.502;7.446;2022-12-15T07:04:57;18.00;;;9.90;;
68072;SDS011;54862;51.502;7.446;2022-12-15T07:07:23;24.30;;;10.52;;
68072;SDS011;54862;51.502;7.446;2022-12-15T07:09:49;25.10;;;10.45;;
68072;SDS011;54862;51.502;7.446;2022-12-15T07:12:16;21.38;;;10.32;;
68072;SDS011;54862;51.502;7.446;2022-12-15T07:14:42;20.75;;;10.02;;
68072;SDS011;54862;51.502;7.446;2022-12-15T07:17:08;19.90;;;9.15;;
68072;SDS011;54862;51.502;7.446;2022-12-15T07:19:37;23.77;;;9.98;;
68072;SDS011;54862;51.502;7.446;2022-12-15T07:22:03;23.48;;;9.90;;
68072;SDS011;54862;51.502;7.446;2022-12-15T07:24:29;21.08;;;9.23;;
68072;SDS011;54862;51.502;7.446;2022-12-15T07:26:55;19.95;;;9.95;;
68072;SDS011;54862;51.502;7.446;2022-12-15T07:29:21;20.67;;;10.88;;
68072;SDS011;54862;51.502;7.446;2022-12-15T07:31:47;20.60;;;9.43;;
68072;SDS011;54862;51.502;7.446;2022-12-15T07:34:13;20.40;;;9.60;;
68072;SDS011;54862;51.502;7.446;2022-12-15T07:36:39;17.65;;;9.82;;
68072;SDS011;54862;51.502;7.446;2022-12-15T07:39:05;25.60;;;11.40;;
68072;SDS011;54862;51.502;7.446;2022-12-15T07:41:31;25.73;;;10.60;;
68072;SDS011;54862;51.502;7.446;2022-12-15T07:43:57;19.67;;;10.27;;
68072;SDS011;54862;51.502;7.446;2022-12-15T07:46:24;20.80;;;9.13;;
68072;SDS011;54862;51.502;7.446;2022-12-15T07:48:51;26.88;;;10.40;;
68072;SDS011;54862;51.502;7.446;2022-12-15T07:51:18;22.73;;;9.93;;
68072;SDS011;54862;51.502;7.446;2022-12-15T07:53:44;20.83;;;10.23;;
68072;SDS011;54862;51.502;7.446;2022-12-15T07:56:10;21.58;;;9.95;;
68072;SDS011;54862;51.502;7.446;2022-12-15T07:58:36;24.23;;;9.85;;
68072;SDS011;54862;51.502;7.446;2022-12-15T08:01:04;23.75;;;10.90;;
68072;SDS011;54862;51.502;7.446;2022-12-15T08:03:30;21.73;;;10.55;;
68072;SDS011;54862;51.502;7.446;2022-12-15T08:05:56;25.85;;;10.60;;
68072;SDS011;54862;51.502;7.446;2022-12-15T08:08:22;22.20;;;11.02;;
68072;SDS011;54862;51.502;7.446;2022-12-15T08:10:49;24.40;;;11.45;;
68072;SDS011;54862;51.502;7.446;2022-12-15T08:13:15;24.70;;;11.32;;
68072;SDS011;54862;51.502;7.446;2022-12-15T08:15:41;19.90;;;9.07;;
68072;SDS011;54862;51.502;7.446;2022-12-15T08:18:07;22.42;;;10.30;;
68072;SDS011;54862;51.502;7.446;2022-12-15T08:20:33;26.70;;;9.90;;
68072;SDS011;54862;51.502;7.446;2022-12-15T08:22:59;19.08;;;9.63;;
68072;SDS011;54862;51.502;7.446;2022-12-15T08:25:25;20.73;;;10.38;;
68072;SDS011;54862;51.502;7.446;2022-12-15T08:27:55;19.42;;;9.38;;
68072;SDS011;54862;51.502;7.446;2022-12-15T08:30:22;22.60;;;10.32;;
68072;SDS011;54862;51.502;7.446;2022-12-15T08:32:48;19.40;;;8.85;;
68072;SDS011;54862;51.502;7.446;2022-12-15T08:35:15;19.65;;;9.93;;
68072;SDS011;54862;51.502;7.446;2022-12-15T08:37:41;22.55;;;10.88;;
68072;SDS011;54862;51.502;7.446;2022-12-15T08:40:07;26.33;;;11.52;;
68072;SDS011;54862;51.502;7.446;2022-12-15T08:42:36;21.67;;;9.32;;
68072;SDS011;54862;51.502;7.446;2022-12-15T08:45:03;24.40;;;11.23;;
68072;SDS011;54862;51.502;7.446;2022-12-15T08:47:29;24.20;;;9.63;;
68072;SDS011;54862;51.502;7.446;2022-12-15T08:49:55;26.60;;;10.63;;
68072;SDS011;54862;51.502;7.446;2022-12-15T08:52:21;22.27;;;10.93;;
68072;SDS011;54862;51.502;7.446;2022-12-15T08:54:48;26.25;;;10.98;;
68072;SDS011;54862;51.502;7.446;2022-12-15T08:57:14;22.05;;;10.90;;
68072;SDS011;54862;51.502;7.446;2022-12-15T08:59:40;22.45;;;9.60;;
68072;SDS011;54862;51.502;7.446;2022-12-15T09:02:06;21.70;;;9.73;;
68072;SDS011;54862;51.502;7.446;2022-12-15T09:04:32;26.48;;;10.88;;
68072;SDS011;54862;51.502;7.446;2022-12-15T09:06:58;23.98;;;10.55;;
68072;SDS011;54862;51.502;7.446;2022-12-15T09:09:24;20.52;;;9.57;;
68072;SDS011;54862;51.502;7.446;2022-12-15T09:11:50;23.92;;;10.38;;
68072;SDS011;54862;51.502;7.446;2022-12-15T09:14:16;23.17;;;9.73;;
68072;SDS011;54862;51.502;7.446;2022-12-15T09:16:43;18.73;;;9.65;;
68072;SDS011;54862;51.502;7.446;2022-12-15T09:19:09;25.15;;;10.60;;
68072;SDS011;54862;51.502;7.446;2022-12-15T09:21:35;24.35;;;10.23;;
68072;SDS011;54862;51.502;7.446;2022-12-15T09:24:02;31.08;;;12.88;;
68072;SDS011;54862;51.502;7.446;2022-12-15T09:26:29;26.83;;;11.40;;
68072;SDS011;54862;51.502;7.446;2022-12-15T09:28:55;26.15;;;10.52;;
68072;SDS011;54862;51.502;7.446;2022-12-15T09:31:32;28.52;;;10.68;;
68072;SDS011;54862;51.502;7.446;2022-12-15T09:33:58;22.52;;;10.85;;
68072;SDS011;54862;51.502;7.446;2022-12-15T09:36:25;26.95;;;11.68;;
68072;SDS011;54862;51.502;7.446;2022-12-15T09:38:51;25.00;;;11.07;;
68072;SDS011;54862;51.502;7.446;2022-12-15T09:41:22;25.58;;;12.05;;
68072;SDS011;54862;51.502;7.446;2022-12-15T09:43:53;27.50;;;11.98;;
68072;SDS011;54862;51.502;7.446;2022-12-15T09:46:29;23.67;;;11.38;;
68072;SDS011;54862;51.502;7.446;2022-12-15T09:49:01;25.60;;;11.23;;
68072;SDS011;54862;51.502;7.446;2022-12-15T09:51:31;25.10;;;11.63;;
68072;SDS011;54862;51.502;7.446;2022-12-15T09:53:58;28.10;;;11.10;;
68072;SDS011;54862;51.502;7.446;2022-12-15T09:56:58;23.92;;;11.02;;
68072;SDS011;54862;51.502;7.446;2022-12-15T10:04:39;25.27;;;11.95;;
68072;SDS011;54862;51.502;7.446;2022-12-15T10:09:37;28.33;;;12.38;;
68072;SDS011;54862;51.502;7.446;2022-12-15T10:12:06;26.00;;;11.52;;
68072;SDS011;54862;51.502;7.446;2022-12-15T10:14:40;26.10;;;11.95;;
68072;SDS011;54862;51.502;7.446;2022-12-15T10:22:02;18.63;;;10.63;;
68072;SDS011;54862;51.502;7.446;2022-12-15T10:24:29;27.08;;;11.02;;
68072;SDS011;54862;51.502;7.446;2022-12-15T10:27:01;23.50;;;11.63;;
68072;SDS011;54862;51.502;7.446;2022-12-15T10:29:32;26.63;;;12.25;;
68072;SDS011;54862;51.502;7.446;2022-12-15T10:32:07;23.38;;;10.63;;
68072;SDS011;54862;51.502;7.446;2022-12-15T10:34:37;24.60;;;11.00;;
68072;SDS011;54862;51.502;7.446;2022-12-15T10:37:03;22.00;;;10.98;;
68072;SDS011;54862;51.502;7.446;2022-12-15T10:39:37;25.83;;;11.48;;
68072;SDS011;54862;51.502;7.446;2022-12-15T10:42:20;26.38;;;11.45;;
68072;SDS011;54862;51.502;7.446;2022-12-15T10:44:47;24.25;;;10.68;;
68072;SDS011;54862;51.502;7.446;2022-12-15T10:47:18;28.33;;;11.35;;
68072;SDS011;54862;51.502;7.446;2022-12-15T10:49:45;22.20;;;10.15;;
68072;SDS011;54862;51.502;7.446;2022-12-15T10:52:21;23.75;;;11.07;;
68072;SDS011;54862;51.502;7.446;2022-12-15T10:54:49;22.33;;;10.73;;
68072;SDS011;54862;51.502;7.446;2022-12-15T10:57:48;22.95;;;10.75;;
68072;SDS011;54862;51.502;7.446;2022-12-15T11:02:39;23.20;;;10.63;;
68072;SDS011;54862;51.502;7.446;2022-12-15T11:12:38;23.00;;;12.13;;
68072;SDS011;54862;51.502;7.446;2022-12-15T11:17:42;21.13;;;10.73;;
68072;SDS011;54862;51.502;7.446;2022-12-15T11:20:10;25.67;;;11.13;;
68072;SDS011;54862;51.502;7.446;2022-12-15T11:25:11;25.45;;;11.55;;
68072;SDS011;54862;51.502;7.446;2022-12-15T11:27:41;26.38;;;12.02;;
68072;SDS011;54862;51.502;7.446;2022-12-15T11:30:13;25.50;;;11.52;;
68072;SDS011;54862;51.502;7.446;2022-12-15T11:32:57;24.85;;;11.30;;
68072;SDS011;54862;51.502;7.446;2022-12-15T11:35:26;25.98;;;11.45;;
68072;SDS011;54862;51.502;7.446;2022-12-15T11:40:38;25.63;;;11.57;;
68072;SDS011;54862;51.502;7.446;2022-12-15T11:45:53;25.77;;;10.65;;
68072;SDS011;54862;51.502;7.446;2022-12-15T11:56:36;23.20;;;11.88;;
68072;SDS011;54862;51.502;7.446;2022-12-15T12:09:16;23.15;;;10.75;;
68072;SDS011;54862;51.502;7.446;2022-12-15T12:11:49;22.60;;;10.77;;
68072;SDS011;54862;51.502;7.446;2022-12-15T12:19:22;21.52;;;10.35;;
68072;SDS011;54862;51.502;7.446;2022-12-15T12:21:49;26.08;;;10.68;;
68072;SDS011;54862;51.502;7.446;2022-12-15T12:24:32;22.88;;;11.23;;
68072;SDS011;54862;51.502;7.446;2022-12-15T12:27:08;23.25;;;10.68;;
68072;SDS011;54862;51.502;7.446;2022-12-15T12:29:37;25.05;;;11.65;;
68072;SDS011;54862;51.502;7.446;2022-12-15T12:37:29;31.15;;;11.55;;
68072;SDS011;54862;51.502;7.446;2022-12-15T12:39:59;24.45;;;11.43;;
68072;SDS011;54862;51.502;7.446;2022-12-15T12:42:32;26.35;;;12.32;;
68072;SDS011;54862;51.502;7.446;2022-12-15T12:45:00;24.77;;;12.55;;
68072;SDS011;54862;51.502;7.446;2022-12-15T12:47:29;27.00;;;11.75;;
68072;SDS011;54862;51.502;7.446;2022-12-15T12:49:57;25.63;;;11.60;;
68072;SDS011;54862;51.502;7.446;2022-12-15T12:52:25;24.27;;;11.63;;
68072;SDS011;54862;51.502;7.446;2022-12-15T12:54:54;24.52;;;12.00;;
68072;SDS011;54862;51.502;7.446;2022-12-15T12:59:55;32.10;;;12.45;;
68072;SDS011;54862;51.502;7.446;2022-12-15T13:04:50;25.50;;;12.73;;
68072;SDS011;54862;51.502;7.446;2022-12-15T13:07:37;28.88;;;12.30;;
68072;SDS011;54862;51.502;7.446;2022-12-15T13:15:02;27.15;;;11.88;;
68072;SDS011;54862;51.502;7.446;2022-12-15T13:17:31;27.38;;;12.00;;
68072;SDS011;54862;51.502;7.446;2022-12-15T13:22:24;26.52;;;12.00;;
68072;SDS011;54862;51.502;7.446;2022-12-15T13:24:52;27.73;;;12.10;;
68072;SDS011;54862;51.502;7.446;2022-12-15T13:27:20;30.10;;;12.60;;
68072;SDS011;54862;51.502;7.446;2022-12-15T13:34:52;27.05;;;12.75;;
68072;SDS011;54862;51.502;7.446;2022-12-15T13:40:15;24.88;;;11.13;;
68072;SDS011;54862;51.502;7.446;2022-12-15T13:42:56;27.40;;;12.63;;
68072;SDS011;54862;51.502;7.446;2022-12-15T13:45:33;27.92;;;11.45;;
68072;SDS011;54862;51.502;7.446;2022-12-15T13:48:04;29.25;;;12.25;;
68072;SDS011;54862;51.502;7.446;2022-12-15T13:51:10;27.02;;;12.05;;
68072;SDS011;54862;51.502;7.446;2022-12-15T13:58:38;25.40;;;11.43;;
68072;SDS011;54862;51.502;7.446;2022-12-15T14:01:16;26.40;;;11.70;;
68072;SDS011;54862;51.502;7.446;2022-12-15T14:03:56;26.60;;;11.40;;
68072;SDS011;54862;51.502;7.446;2022-12-15T14:06:22;37.15;;;13.77;;
68072;SDS011;54862;51.502;7.446;2022-12-15T14:08:48;25.52;;;11.13;;
68072;SDS011;54862;51.502;7.446;2022-12-15T14:11:21;26.35;;;12.52;;
68072;SDS011;54862;51.502;7.446;2022-12-15T14:13:48;26.50;;;11.88;;
68072;SDS011;54862;51.502;7.446;2022-12-15T14:16:19;29.48;;;12.93;;
68072;SDS011;54862;51.502;7.446;2022-12-15T14:21:31;23.90;;;11.68;;
68072;SDS011;54862;51.502;7.446;2022-12-15T14:23:56;24.88;;;12.13;;
68072;SDS011;54862;51.502;7.446;2022-12-15T14:26:25;27.23;;;11.25;;
68072;SDS011;54862;51.502;7.446;2022-12-15T14:28:59;29.13;;;12.27;;
68072;SDS011;54862;51.502;7.446;2022-12-15T14:31:26;27.25;;;11.50;;
68072;SDS011;54862;51.502;7.446;2022-12-15T14:33:57;27.63;;;12.02;;
68072;SDS011;54862;51.502;7.446;2022-12-15T14:36:25;22.40;;;10.75;;
68072;SDS011;54862;51.502;7.446;2022-12-15T14:39:01;27.63;;;12.48;;
68072;SDS011;54862;51.502;7.446;2022-12-15T14:41:28;27.92;;;12.07;;
68072;SDS011;54862;51.502;7.446;2022-12-15T14:43:56;26.60;;;12.00;;
68072;SDS011;54862;51.502;7.446;2022-12-15T14:46:24;26.20;;;11.52;;
68072;SDS011;54862;51.502;7.446;2022-12-15T14:48:55;21.25;;;10.73;;
68072;SDS011;54862;51.502;7.446;2022-12-15T14:51:22;28.63;;;12.18;;
68072;SDS011;54862;51.502;7.446;2022-12-15T14:53:49;23.50;;;12.95;;
68072;SDS011;54862;51.502;7.446;2022-12-15T14:58:45;28.98;;;13.75;;
68072;SDS011;54862;51.502;7.446;2022-12-15T15:04:03;25.20;;;12.15;;
68072;SDS011;54862;51.502;7.446;2022-12-15T15:06:33;29.73;;;13.35;;
68072;SDS011;54862;51.502;7.446;2022-12-15T15:09:10;24.27;;;11.82;;
68072;SDS011;54862;51.502;7.446;2022-12-15T15:11:38;27.90;;;13.48;;
68072;SDS011;54862;51.502;7.446;2022-12-15T15:14:09;28.95;;;12.57;;
68072;SDS011;54862;51.502;7.446;2022-12-15T15:16:37;29.63;;;12.40;;
68072;SDS011;54862;51.502;7.446;2022-12-15T15:19:03;26.92;;;12.85;;
68072;SDS011;54862;51.502;7.446;2022-12-15T15:21:30;28.70;;;12.75;;
68072;SDS011;54862;51.502;7.446;2022-12-15T15:26:24;26.80;;;13.02;;
68072;SDS011;54862;51.502;7.446;2022-12-15T15:28:50;23.38;;;12.98;;
68072;SDS011;54862;51.502;7.446;2022-12-15T15:33:49;28.38;;;13.68;;
68072;SDS011;54862;51.502;7.446;2022-12-15T15:36:15;25.65;;;13.00;;
68072;SDS011;54862;51.502;7.446;2022-12-15T15:38:41;27.38;;;13.18;;
68072;SDS011;54862;51.502;7.446;2022-12-15T15:43:39;30.35;;;13.93;;
68072;SDS011;54862;51.502;7.446;2022-12-15T15:46:08;26.60;;;12.90;;
68072;SDS011;54862;51.502;7.446;2022-12-15T15:48:36;29.58;;;14.23;;
68072;SDS011;54862;51.502;7.446;2022-12-15T15:51:03;25.42;;;13.70;;
68072;SDS011;54862;51.502;7.446;2022-12-15T15:53:30;28.48;;;14.10;;
68072;SDS011;54862;51.502;7.446;2022-12-15T15:55:57;28.45;;;12.80;;
68072;SDS011;54862;51.502;7.446;2022-12-15T15:58:24;30.42;;;14.20;;
68072;SDS011;54862;51.502;7.446;2022-12-15T16:00:50;29.73;;;14.60;;
68072;SDS011;54862;51.502;7.446;2022-12-15T16:03:17;28.77;;;13.93;;
68072;SDS011;54862;51.502;7.446;2022-12-15T16:05:43;36.15;;;14.35;;
68072;SDS011;54862;51.502;7.446;2022-12-15T16:08:14;30.90;;;14.23;;
68072;SDS011;54862;51.502;7.446;2022-12-15T16:10:45;33.38;;;14.93;;
68072;SDS011;54862;51.502;7.446;2022-12-15T16:13:11;33.13;;;15.10;;
68072;SDS011;54862;51.502;7.446;2022-12-15T16:15:40;34.38;;;15.30;;
68072;SDS011;54862;51.502;7.446;2022-12-15T16:18:07;32.00;;;15.85;;
68072;SDS011;54862;51.502;7.446;2022-12-15T16:20:34;30.83;;;14.82;;
68072;SDS011;54862;51.502;7.446;2022-12-15T16:23:13;32.15;;;16.00;;
68072;SDS011;54862;51.502;7.446;2022-12-15T16:25:44;36.40;;;15.32;;
68072;SDS011;54862;51.502;7.446;2022-12-15T16:28:15;34.03;;;15.23;;
68072;SDS011;54862;51.502;7.446;2022-12-15T16:30:41;27.30;;;13.57;;
68072;SDS011;54862;51.502;7.446;2022-12-15T16:33:08;31.35;;;15.55;;
68072;SDS011;54862;51.502;7.446;2022-12-15T16:35:34;37.85;;;16.83;;
68072;SDS011;54862;51.502;7.446;2022-12-15T16:38:11;32.20;;;14.90;;
68072;SDS011;54862;51.502;7.446;2022-12-15T16:40:38;39.05;;;15.75;;
68072;SDS011;54862;51.502;7.446;2022-12-15T16:43:08;29.85;;;15.05;;
68072;SDS011;54862;51.502;7.446;2022-12-15T16:45:35;36.58;;;16.55;;
68072;SDS011;54862;51.502;7.446;2022-12-15T16:48:01;40.45;;;16.63;;
68072;SDS011;54862;51.502;7.446;2022-12-15T16:50:28;31.58;;;14.02;;
68072;SDS011;54862;51.502;7.446;2022-12-15T16:52:54;36.35;;;16.35;;
68072;SDS011;54862;51.502;7.446;2022-12-15T16:55:25;37.47;;;17.95;;
68072;SDS011;54862;51.502;7.446;2022-12-15T16:57:53;44.58;;;19.30;;
68072;SDS011;54862;51.502;7.446;2022-12-15T17:00:21;49.60;;;23.65;;